Terminal Aerodrome Forecast
Issued by NWS

Home | Current Version | Previous Version | Text Only | Print | Product List | Glossary On
Versions: 1 2 3 4 5 6 7 8 9 10 11 12 13 14 15 16 17 18 19 20 21 22 23 24
000
FTUS43 KOAX 011743
TAFSNY
TAF
KSNY 011743Z 0118/0218 33008KT P6SM SCT070
     FM020100 16005KT P6SM BKN050
     FM020900 17014KT 4SM BR VCSH OVC030
     FM021200 17015G21KT 2SM -SHSN OVC015=

USA.gov is the U.S. government's official web portal to all federal, state and local government web resources and services.